Lady Mary — WCY4834 — position and weather

sailwx.info

Track history (hours):
 
Tides and Currents Weather Stations Pressure Air Temp Water Temp Dewpoint Dewpoint Depression Visibility Wind Speed Wind Dir Waves Ship Positions

Lady Mary

Owner: BLACKMAN, JOHN H, SEATTLE, WA. More information available from US FCC via Universal Licensing System and Coast Guard Vessel Documentation Center.

Last reported at 2017-Aug-16 21:28 UTC. Time now 2017-Aug-16 21:49 UTC.
Position N 47°40' W 122°13'.

Length 26 m.

Type: Passenger vessel. MMSI: 367013060.

Date/timePositionNaut miles runAvg speedWind from/ knotsBaromVisibWave heightAir tempDewpointWater temp
2017-Aug-16 21:28N 47°40' W 122°13'0 0.0
2017-Aug-16 20:59N 47°40' W 122°13'0 0.0
2017-Aug-16 20:29N 47°40' W 122°13'0 0.0
2017-Aug-16 19:59N 47°40' W 122°13'0 0.0
2017-Aug-16 19:30N 47°40' W 122°13'0 0.0
2017-Aug-16 18:57N 47°40' W 122°13'0 0.0
2017-Aug-16 18:30N 47°40' W 122°13'0 0.0
2017-Aug-16 17:58N 47°40' W 122°13'0 0.0
2017-Aug-16 17:28N 47°40' W 122°13'0 0.0
2017-Aug-16 16:58N 47°40' W 122°13'0 0.0
2017-Aug-16 16:26N 47°40' W 122°13'0 0.0
2017-Aug-16 15:59N 47°40' W 122°13'0 0.0
2017-Aug-16 15:26N 47°40' W 122°13'0 0.0
2017-Aug-16 15:00N 47°40' W 122°13'0 0.0
2017-Aug-16 14:27N 47°40' W 122°13'0 0.0
2017-Aug-16 14:00N 47°40' W 122°13'0 0.0
2017-Aug-16 13:28N 47°40' W 122°13'0 0.0
2017-Aug-16 12:58N 47°40' W 122°13'0 0.0
2017-Aug-16 12:28N 47°40' W 122°13'0 0.0
2017-Aug-16 11:59N 47°40' W 122°13'0 0.0
2017-Aug-16 11:29N 47°40' W 122°13'0 0.0
2017-Aug-16 10:59N 47°40' W 122°13'0 0.0
2017-Aug-16 10:30N 47°40' W 122°13'0 0.0
2017-Aug-16 10:00N 47°40' W 122°13'0 0.0
2017-Aug-16 09:30N 47°40' W 122°13'0 0.0
2017-Aug-16 08:58N 47°40' W 122°13'0 0.0
2017-Aug-16 08:28N 47°40' W 122°13'0 0.0
2017-Aug-16 07:58N 47°40' W 122°13'0 0.0
2017-Aug-16 07:29N 47°40' W 122°13'0 0.0
2017-Aug-16 06:59N 47°40' W 122°13'0 0.0
2017-Aug-16 06:29N 47°40' W 122°13'0 0.0
2017-Aug-16 06:00N 47°40' W 122°13'0 0.0
2017-Aug-16 05:30N 47°40' W 122°13'0 0.0
2017-Aug-16 05:00N 47°40' W 122°13'0 0.0
2017-Aug-16 04:28N 47°40' W 122°13'0 0.0
2017-Aug-16 03:58N 47°40' W 122°13'0 0.0
2017-Aug-16 03:28N 47°40' W 122°13'0 0.0
2017-Aug-16 02:59N 47°40' W 122°13'0 0.0
2017-Aug-16 02:29N 47°40' W 122°13'0 0.0
2017-Aug-16 01:56N 47°40' W 122°13'2 4.5
2017-Aug-16 01:30N 47°39' W 122°15'3 6.6
2017-Aug-16 01:00N 47°39' W 122°20'3 6.0
2017-Aug-16 00:30N 47°40' W 122°24'0 0.3
2017-Aug-16 00:00N 47°40' W 122°24'2 4.2
2017-Aug-15 23:30N 47°38' W 122°25'4 7.2
2017-Aug-15 23:00N 47°36' W 122°20'0 0.0
2017-Aug-15 22:30N 47°36' W 122°20'0 0.0
2017-Aug-15 22:00N 47°36' W 122°20'1 2.9
2017-Aug-15 21:30N 47°35' W 122°22'2 3.2
2017-Aug-15 21:00N 47°36' W 122°24'3 6.3
2017-Aug-15 20:30N 47°35' W 122°28'3 6.0
2017-Aug-15 20:00N 47°38' W 122°29'3 6.4
2017-Aug-15 19:30N 47°38' W 122°24'3 5.6
2017-Aug-15 19:00N 47°36' W 122°20'0 0.0
2017-Aug-15 18:30N 47°36' W 122°20'0 0.0
2017-Aug-15 18:00N 47°36' W 122°20'2 3.9
2017-Aug-15 17:30N 47°37' W 122°23'4 7.2
2017-Aug-15 17:00N 47°41' W 122°25'1 2.1
2017-Aug-15 16:30N 47°40' W 122°24'0 0.5
2017-Aug-15 16:00N 47°40' W 122°24'3 5.5
2017-Aug-15 15:30N 47°38' W 122°20'0 0.0
2017-Aug-15 04:33N 47°38' W 122°20'0 0.0
2017-Aug-15 04:30N 47°38' W 122°20'0 0.0
2017-Aug-15 04:00N 47°38' W 122°20'0 0.0
2017-Aug-15 03:30N 47°38' W 122°20'1 2.8
2017-Aug-15 03:00N 47°39' W 122°20'2 4.3
2017-Aug-15 02:30N 47°38' W 122°16'1 2.5
2017-Aug-15 02:00N 47°38' W 122°15'2 4.1
2017-Aug-15 01:30N 47°39' W 122°18'2 3.2
2017-Aug-15 01:00N 47°39' W 122°20'1 1.8
2017-Aug-15 00:30N 47°38' W 122°20'0 0.0
2017-Aug-15 00:00N 47°38' W 122°20'0 0.4
2017-Aug-14 23:30N 47°38' W 122°20'0 0.1
2017-Aug-14 23:00N 47°38' W 122°20'1 2.0
2017-Aug-14 22:30N 47°39' W 122°21'0 0.0
2017-Aug-14 22:00N 47°39' W 122°21'1 2.5
2017-Aug-14 21:30N 47°39' W 122°19'4 7.6
2017-Aug-14 21:00N 47°40' W 122°13'1 1.5
2017-Aug-14 20:30N 47°40' W 122°13'0 0.0
2017-Aug-14 20:00N 47°40' W 122°13'0 0.0
2017-Aug-14 19:30N 47°40' W 122°13'0 0.0
2017-Aug-14 19:00N 47°40' W 122°13'0 0.0
2017-Aug-14 18:30N 47°40' W 122°13'0 0.0
2017-Aug-14 18:00N 47°40' W 122°13'0 0.0
2017-Aug-14 17:30N 47°40' W 122°13'0 0.0
2017-Aug-14 17:00N 47°40' W 122°13'0 0.0
2017-Aug-14 16:30N 47°40' W 122°13'0 0.0
2017-Aug-14 16:00N 47°40' W 122°13'0 0.0
2017-Aug-14 15:30N 47°40' W 122°13'0 0.0
2017-Aug-14 15:00N 47°40' W 122°13'0 0.0
2017-Aug-14 14:30N 47°40' W 122°13'0 0.0
2017-Aug-14 14:00N 47°40' W 122°13'0 0.0
2017-Aug-14 13:30N 47°40' W 122°13'0 0.0
2017-Aug-14 13:00N 47°40' W 122°13'0 0.0
2017-Aug-14 12:30N 47°40' W 122°13'0 0.0
2017-Aug-14 12:00N 47°40' W 122°13'0 0.0
2017-Aug-14 11:30N 47°40' W 122°13'0 0.0
2017-Aug-14 11:00N 47°40' W 122°13'0 0.0
2017-Aug-14 10:30N 47°40' W 122°13'0 0.0
2017-Aug-14 10:00N 47°40' W 122°13'0 0.0
2017-Aug-14 09:30N 47°40' W 122°13'0 0.0
2017-Aug-14 09:00N 47°40' W 122°13'0 0.0
2017-Aug-14 08:30N 47°40' W 122°13'0 0.0
2017-Aug-14 08:00N 47°40' W 122°13'0 0.0
2017-Aug-14 07:30N 47°40' W 122°13'0 0.0
2017-Aug-14 07:00N 47°40' W 122°13'0 0.0
2017-Aug-14 06:30N 47°40' W 122°13'0 0.0
2017-Aug-14 06:00N 47°40' W 122°13'0 0.0
2017-Aug-14 05:30N 47°40' W 122°13'0 0.0
2017-Aug-14 05:00N 47°40' W 122°13'0 0.0
2017-Aug-14 04:30N 47°40' W 122°13'0 0.0
2017-Aug-14 04:00N 47°40' W 122°13'0 0.0
2017-Aug-14 03:30N 47°40' W 122°13'0 0.0
2017-Aug-14 03:00N 47°40' W 122°13'0 0.0
2017-Aug-14 02:30N 47°40' W 122°13'0 0.0
2017-Aug-14 02:00N 47°40' W 122°13'0 0.0
2017-Aug-14 01:30N 47°40' W 122°13'0 0.0
2017-Aug-14 01:00N 47°40' W 122°13'0 0.0
2017-Aug-14 00:30N 47°40' W 122°13'0 0.0
2017-Aug-14 00:00N 47°40' W 122°13'3 6.6
2017-Aug-13 23:30N 47°37' W 122°15'0 0.2
2017-Aug-13 23:00N 47°38' W 122°15'3 6.5
2017-Aug-13 22:30N 47°40' W 122°13'0 0.0
2017-Aug-13 22:00N 47°40' W 122°13'3 6.9
2017-Aug-13 21:30N 47°37' W 122°15'1 1.1
2017-Aug-13 21:01N 47°38' W 122°15'3 5.9
2017-Aug-13 20:30N 47°40' W 122°13'0 0.0
2017-Aug-13 20:00N 47°40' W 122°13'3 6.6
2017-Aug-13 19:30N 47°38' W 122°15'0 0.3
2017-Aug-13 19:00N 47°38' W 122°15'3 6.3
2017-Aug-13 18:30N 47°40' W 122°13'0 0.0
2017-Aug-13 18:00N 47°40' W 122°13'0 0.0
2017-Aug-13 17:30N 47°40' W 122°13'0 0.0
2017-Aug-13 17:00N 47°40' W 122°13'0 0.0
2017-Aug-13 16:30N 47°40' W 122°13'0 0.0
2017-Aug-13 16:00N 47°40' W 122°13'0 0.0
2017-Aug-13 15:30N 47°40' W 122°13'0 0.0
2017-Aug-13 15:00N 47°40' W 122°13'0 0.0
2017-Aug-13 14:30N 47°40' W 122°13'0 0.0
2017-Aug-13 14:00N 47°40' W 122°13'0 0.0
2017-Aug-13 13:30N 47°40' W 122°13'0 0.0
2017-Aug-13 13:00N 47°40' W 122°13'0 0.0
2017-Aug-13 12:30N 47°40' W 122°13'0 0.0
2017-Aug-13 12:00N 47°40' W 122°13'0 0.0
2017-Aug-13 11:30N 47°40' W 122°13'0 0.0
2017-Aug-13 11:00N 47°40' W 122°13'0 0.0
2017-Aug-13 10:30N 47°40' W 122°13'0 0.0
2017-Aug-13 10:00N 47°40' W 122°13'0 0.0
2017-Aug-13 09:30N 47°40' W 122°13'0 0.0
2017-Aug-13 09:00N 47°40' W 122°13'0 0.0
2017-Aug-13 08:30N 47°40' W 122°13'0 0.0
2017-Aug-13 08:00N 47°40' W 122°13'0 0.0
2017-Aug-13 07:30N 47°40' W 122°13'1 2.1
2017-Aug-13 07:00N 47°39' W 122°13'0 0.0
2017-Aug-13 06:30N 47°39' W 122°13'0 0.0
2017-Aug-13 06:00N 47°39' W 122°13'2 3.4
2017-Aug-13 05:30N 47°38' W 122°15'2 3.5
2017-Aug-13 05:00N 47°37' W 122°14'3 5.4
2017-Aug-13 04:30N 47°39' W 122°17'2 4.5
2017-Aug-13 04:00N 47°38' W 122°20'2 3.0
2017-Aug-13 03:30N 47°39' W 122°18'3 6.0
2017-Aug-13 03:00N 47°39' W 122°14'0 0.2
2017-Aug-13 02:30N 47°39' W 122°13'1 1.6
2017-Aug-13 02:00N 47°39' W 122°13'0 0.0
2017-Aug-13 01:30N 47°39' W 122°13'0 0.0
2017-Aug-13 01:00N 47°39' W 122°13'0 0.0
2017-Aug-13 00:30N 47°39' W 122°13'0 0.0
2017-Aug-13 00:00N 47°39' W 122°13'0 0.0
2017-Aug-12 23:31N 47°39' W 122°13'1 2.1
2017-Aug-12 23:00N 47°40' W 122°13'0 0.0
2017-Aug-12 22:30N 47°40' W 122°13'0 0.6
2017-Aug-12 22:00N 47°40' W 122°13'4 7.2
2017-Aug-12 21:30N 47°37' W 122°14'2 4.1
2017-Aug-12 21:00N 47°39' W 122°14'2 4.1
2017-Aug-12 20:30N 47°40' W 122°13'0 0.0
2017-Aug-12 20:00N 47°40' W 122°13'4 7.5
2017-Aug-12 19:30N 47°37' W 122°14'2 3.2
2017-Aug-12 19:00N 47°38' W 122°15'2 4.8
2017-Aug-12 18:30N 47°40' W 122°13'0 0.0
2017-Aug-12 18:00N 47°40' W 122°13'0 0.0
2017-Aug-12 17:30N 47°40' W 122°13'0 0.0
2017-Aug-12 17:00N 47°40' W 122°13'0 0.0
2017-Aug-12 16:30N 47°40' W 122°13'0 0.0
2017-Aug-12 16:00N 47°40' W 122°13'0 0.0
2017-Aug-12 15:31N 47°40' W 122°13'0 0.0
2017-Aug-12 15:00N 47°40' W 122°13'0 0.0
2017-Aug-12 14:30N 47°40' W 122°13'0 0.0
2017-Aug-12 14:00N 47°40' W 122°13'0 0.0
2017-Aug-12 13:30N 47°40' W 122°13'0 0.0
2017-Aug-12 13:00N 47°40' W 122°13'0 0.0
2017-Aug-12 12:30N 47°40' W 122°13'0 0.0
2017-Aug-12 12:00N 47°40' W 122°13'0 0.0
2017-Aug-12 11:30N 47°40' W 122°13'0 0.0
2017-Aug-12 11:00N 47°40' W 122°13'0 0.0
2017-Aug-12 10:30N 47°40' W 122°13'0 0.0
2017-Aug-12 10:00N 47°40' W 122°13'0 0.0
2017-Aug-12 09:30N 47°40' W 122°13'0 0.0
2017-Aug-12 09:00N 47°40' W 122°13'0 0.0
2017-Aug-12 08:30N 47°40' W 122°13'0 0.0
2017-Aug-12 08:00N 47°40' W 122°13'0 0.0
2017-Aug-12 07:30N 47°40' W 122°13'0 0.0
2017-Aug-12 07:00N 47°40' W 122°13'1 2.2
2017-Aug-12 06:30N 47°40' W 122°14'4 7.7
2017-Aug-12 06:00N 47°39' W 122°20'1 2.9
2017-Aug-12 05:30N 47°38' W 122°20'4 6.9
2017-Aug-12 04:59N 47°37' W 122°15'2 4.5
2017-Aug-12 04:30N 47°39' W 122°17'2 3.5
2017-Aug-12 04:00N 47°37' W 122°16'2 3.0
2017-Aug-12 03:30N 47°38' W 122°15'4 7.2
2017-Aug-12 02:59N 47°38' W 122°20'0 0.5
2017-Aug-12 02:30N 47°38' W 122°20'1 1.5
2017-Aug-12 02:00N 47°38' W 122°20'0 0.0
2017-Aug-12 01:30N 47°38' W 122°20'0 0.1
2017-Aug-12 01:00N 47°38' W 122°20'1 2.4
2017-Aug-12 00:30N 47°39' W 122°20'3 6.7
2017-Aug-12 00:00N 47°39' W 122°15'2 3.6
2017-Aug-11 23:31N 47°40' W 122°13'0 0.0
2017-Aug-11 23:00N 47°40' W 122°13'0 0.0
2017-Aug-11 22:30N 47°40' W 122°13'0 0.0
2017-Aug-11 22:00N 47°40' W 122°13'0 0.0
2017-Aug-11 21:30N 47°40' W 122°13'0 0.0
2017-Aug-11 21:00N 47°40' W 122°13'0 0.0
2017-Aug-11 20:30N 47°40' W 122°13'0 0.0
2017-Aug-11 20:00N 47°40' W 122°13'0 0.0
2017-Aug-11 19:30N 47°40' W 122°13'0 0.0
2017-Aug-11 19:00N 47°40' W 122°13'0 0.0
2017-Aug-11 18:30N 47°40' W 122°13'0 0.0
2017-Aug-11 18:00N 47°40' W 122°13'0 0.0
2017-Aug-11 17:30N 47°40' W 122°13'0 0.0
2017-Aug-11 17:00N 47°40' W 122°13'0 0.0
2017-Aug-11 16:30N 47°40' W 122°13'0 0.0
2017-Aug-11 16:00N 47°40' W 122°13'0 0.0
2017-Aug-11 15:30N 47°40' W 122°13'0 0.0
2017-Aug-11 15:00N 47°40' W 122°13'0 0.0
2017-Aug-11 14:00N 47°40' W 122°13'0 0.0
2017-Aug-11 13:30N 47°40' W 122°13'0 0.0
2017-Aug-11 13:00N 47°40' W 122°13'0 0.0
2017-Aug-11 12:30N 47°40' W 122°13'0 0.0
2017-Aug-11 12:00N 47°40' W 122°13'0 0.0
2017-Aug-11 11:30N 47°40' W 122°13'0 0.0
2017-Aug-11 11:00N 47°40' W 122°13'0 0.0
2017-Aug-11 10:30N 47°40' W 122°13'0 0.0
2017-Aug-11 10:00N 47°40' W 122°13'0 0.0
2017-Aug-11 09:30N 47°40' W 122°13'0 0.0
2017-Aug-11 09:00N 47°40' W 122°13'0 0.0
2017-Aug-11 08:30N 47°40' W 122°13'0 0.0
2017-Aug-11 08:00N 47°40' W 122°13'0 0.0
2017-Aug-11 07:30N 47°40' W 122°13'4 7.3
2017-Aug-11 07:00N 47°39' W 122°17'2 4.5
2017-Aug-11 06:30N 47°39' W 122°21'1 1.9
2017-Aug-11 06:00N 47°38' W 122°20'0 0.2
2017-Aug-11 05:30N 47°38' W 122°20'0 0.0
2017-Aug-11 05:00N 47°38' W 122°20'2 3.8
2017-Aug-11 04:27N 47°39' W 122°18'3 6.7
2017-Aug-11 04:00N 47°37' W 122°14'1 2.6
2017-Aug-11 03:30N 47°38' W 122°15'3 6.4
2017-Aug-11 03:01N 47°39' W 122°19'1 2.5
2017-Aug-11 02:31N 47°38' W 122°20'0 0.7
2017-Aug-11 02:00N 47°38' W 122°20'0 0.0
2017-Aug-11 01:30N 47°38' W 122°20'0 0.0
2017-Aug-11 01:00N 47°38' W 122°20'0 0.1
2017-Aug-11 00:30N 47°38' W 122°20'2 4.8
2017-Aug-11 00:00N 47°39' W 122°17'3 7.0
2017-Aug-10 23:31N 47°40' W 122°13'0 0.0
2017-Aug-10 23:00N 47°40' W 122°13'0 0.0
2017-Aug-10 22:30N 47°40' W 122°13'1 2.8
2017-Aug-10 22:00N 47°39' W 122°13'2 4.1
2017-Aug-10 21:30N 47°38' W 122°16'3 5.7
2017-Aug-10 21:00N 47°39' W 122°19'0 0.8
2017-Aug-10 20:30N 47°39' W 122°20'3 5.9
2017-Aug-10 20:00N 47°39' W 122°15'2 4.5
2017-Aug-10 19:30N 47°40' W 122°13'0 0.0
2017-Aug-10 19:00N 47°40' W 122°13'0 0.0
2017-Aug-10 18:30N 47°40' W 122°13'0 0.0
2017-Aug-10 18:00N 47°40' W 122°13'0 0.0
2017-Aug-10 17:30N 47°40' W 122°13'0 0.0
2017-Aug-10 17:00N 47°40' W 122°13'0 0.0
2017-Aug-10 16:30N 47°40' W 122°13'0 0.0
2017-Aug-10 16:00N 47°40' W 122°13'0 0.0
2017-Aug-10 15:30N 47°40' W 122°13'0 0.0
2017-Aug-10 15:00N 47°40' W 122°13'0 0.0
2017-Aug-10 14:30N 47°40' W 122°13'0 0.0
2017-Aug-10 14:00N 47°40' W 122°13'0 0.0
2017-Aug-10 13:30N 47°40' W 122°13'0 0.0
2017-Aug-10 13:00N 47°40' W 122°13'0 0.0
2017-Aug-10 12:30N 47°40' W 122°13'0 0.0
2017-Aug-10 12:00N 47°40' W 122°13'0 0.0
2017-Aug-10 11:30N 47°40' W 122°13'0 0.0
2017-Aug-10 11:00N 47°40' W 122°13'0 0.0
2017-Aug-10 10:30N 47°40' W 122°13'0 0.0
2017-Aug-10 10:00N 47°40' W 122°13'0 0.0
2017-Aug-10 09:30N 47°40' W 122°13'0 0.0
2017-Aug-10 09:00N 47°40' W 122°13'0 0.0
2017-Aug-10 08:30N 47°40' W 122°13'0 0.0
2017-Aug-10 08:00N 47°40' W 122°13'0 0.0
2017-Aug-10 07:30N 47°40' W 122°13'0 0.0
2017-Aug-10 07:00N 47°40' W 122°13'0 0.0
2017-Aug-10 06:30N 47°40' W 122°13'2 3.4
2017-Aug-10 06:00N 47°40' W 122°15'3 6.6
2017-Aug-10 05:30N 47°39' W 122°20'1 1.6
2017-Aug-10 05:00N 47°39' W 122°21'2 3.0
2017-Aug-10 04:30N 47°39' W 122°18'4 8.0
2017-Aug-10 04:00N 47°40' W 122°13'1 2.0
2017-Aug-10 03:30N 47°39' W 122°14'3 6.2
2017-Aug-10 03:00N 47°36' W 122°13'3 5.7
2017-Aug-10 02:30N 47°39' W 122°14'1 2.8
2017-Aug-10 02:00N 47°40' W 122°13'0 0.0
2017-Aug-10 01:30N 47°40' W 122°13'0 0.0
2017-Aug-10 01:00N 47°40' W 122°13'0 0.5
2017-Aug-10 00:30N 47°40' W 122°13'4 7.9
2017-Aug-10 00:00N 47°39' W 122°18'2 3.4
2017-Aug-09 23:30N 47°38' W 122°20'0 0.1
2017-Aug-09 23:00N 47°38' W 122°20'2 3.0
2017-Aug-09 22:30N 47°39' W 122°21'3 5.4
2017-Aug-09 22:00N 47°39' W 122°17'3 5.5
2017-Aug-09 21:30N 47°37' W 122°14'1 2.3
2017-Aug-09 21:00N 47°38' W 122°16'3 5.7
2017-Aug-09 20:30N 47°39' W 122°19'2 2.2
2017-Aug-09 19:46N 47°38' W 122°20'0 0.0
2017-Aug-09 19:30N 47°38' W 122°20'0 0.0
2017-Aug-09 18:38N 47°38' W 122°20'0 1.0
2017-Aug-09 18:30N 47°38' W 122°20'3 5.4
2017-Aug-09 17:59N 47°39' W 122°16'3 5.1
2017-Aug-09 17:23N 47°40' W 122°13'0 0.0
2017-Aug-09 16:59N 47°40' W 122°13'0 0.0
2017-Aug-09 16:30N 47°40' W 122°13'0 0.0
2017-Aug-09 15:54N 47°40' W 122°13'0 0.0
2017-Aug-09 15:30N 47°40' W 122°13'0 0.0
2017-Aug-09 14:58N 47°40' W 122°13'0 0.0
2017-Aug-09 14:25N 47°40' W 122°13'0 0.0
2017-Aug-09 13:49N 47°40' W 122°13'0 0.0
2017-Aug-09 13:29N 47°40' W 122°13'0 0.0
2017-Aug-09 12:56N 47°40' W 122°13'0 0.0
2017-Aug-09 12:29N 47°40' W 122°13'0 0.0
2017-Aug-09 12:00N 47°40' W 122°13'0 0.0
2017-Aug-09 11:30N 47°40' W 122°13'0 0.0
2017-Aug-09 11:00N 47°40' W 122°13'0 0.0
2017-Aug-09 10:28N 47°40' W 122°13'0 0.0
2017-Aug-09 09:58N 47°40' W 122°13'0 0.0
2017-Aug-09 09:28N 47°40' W 122°13'0 0.0
2017-Aug-09 08:59N 47°40' W 122°13'0 0.0
2017-Aug-09 08:23N 47°40' W 122°13'0 0.0
2017-Aug-09 07:59N 47°40' W 122°13'0 0.0
2017-Aug-09 07:30N 47°40' W 122°13'0 0.0
2017-Aug-09 07:00N 47°40' W 122°13'0 0.0
2017-Aug-09 06:30N 47°40' W 122°13'0 0.0
2017-Aug-09 05:55N 47°40' W 122°13'0 0.0
2017-Aug-09 05:28N 47°40' W 122°13'0 0.0
2017-Aug-09 04:55N 47°40' W 122°13'0 0.0
2017-Aug-09 04:29N 47°40' W 122°13'0 0.0
2017-Aug-09 03:56N 47°40' W 122°13'0 0.0
2017-Aug-09 03:29N 47°40' W 122°13'0 0.0
2017-Aug-09 02:57N 47°40' W 122°13'0 0.0
2017-Aug-09 02:30N 47°40' W 122°13'0 0.0
2017-Aug-09 01:57N 47°40' W 122°13'0 0.0
2017-Aug-09 01:28N 47°40' W 122°13'0 0.0
2017-Aug-09 00:58N 47°40' W 122°13'0 0.0
2017-Aug-09 00:28N 47°40' W 122°13'0 0.0
2017-Aug-08 23:56N 47°40' W 122°13'0 0.0
2017-Aug-08 23:29N 47°40' W 122°13'0 0.0
2017-Aug-08 22:59N 47°40' W 122°13'0 0.0
2017-Aug-08 22:30N 47°40' W 122°13'0 0.0
2017-Aug-08 22:00N 47°40' W 122°13'0 0.0
2017-Aug-08 21:30N 47°40' W 122°13'0 0.0
2017-Aug-08 20:58N 47°40' W 122°13'0 0.0
2017-Aug-08 20:28N 47°40' W 122°13'0 0.0
2017-Aug-08 19:58N 47°40' W 122°13'0 0.0
2017-Aug-08 19:29N 47°40' W 122°13'0 0.0
2017-Aug-08 18:56N 47°40' W 122°13'0 0.0
2017-Aug-08 18:30N 47°40' W 122°13'1 1.5
2017-Aug-08 18:00N 47°40' W 122°13'1 1.3
2017-Aug-08 17:28N 47°40' W 122°13'0 0.0
2017-Aug-08 16:58N 47°40' W 122°13'0 0.0
2017-Aug-08 16:25N 47°40' W 122°13'0 0.0
2017-Aug-08 15:59N 47°40' W 122°13'0 0.0
2017-Aug-08 15:29N 47°40' W 122°13'0 0.0
2017-Aug-08 14:59N 47°40' W 122°13'0 0.0
2017-Aug-08 14:30N 47°40' W 122°13'0 0.0
2017-Aug-08 13:57N 47°40' W 122°13'0 0.0
2017-Aug-08 13:30N 47°40' W 122°13'0 0.0
2017-Aug-08 12:58N 47°40' W 122°13'0 0.0
2017-Aug-08 12:25N 47°40' W 122°13'0 0.0
2017-Aug-08 11:58N 47°40' W 122°13'0 0.0
2017-Aug-08 11:29N 47°40' W 122°13'0 0.0
2017-Aug-08 10:59N 47°40' W 122°13'0 0.0
2017-Aug-08 10:29N 47°40' W 122°13'0 0.0
2017-Aug-08 10:00N 47°40' W 122°13'0 0.0
2017-Aug-08 09:30N 47°40' W 122°13'0 0.0
2017-Aug-08 09:00N 47°40' W 122°13'0 0.0
2017-Aug-08 08:28N 47°40' W 122°13'0 0.0
2017-Aug-08 07:55N 47°40' W 122°13'0 0.0
2017-Aug-08 07:28N 47°40' W 122°13'0 0.0
2017-Aug-08 06:59N 47°40' W 122°13'0 0.0
2017-Aug-08 06:29N 47°40' W 122°13'0 0.0
2017-Aug-08 05:59N 47°40' W 122°13'0 0.0
2017-Aug-08 05:30N 47°40' W 122°13'0 0.0
2017-Aug-08 05:00N 47°40' W 122°13'0 0.0
2017-Aug-08 04:27N 47°40' W 122°13'0 0.0
2017-Aug-08 03:58N 47°40' W 122°13'0 0.0
2017-Aug-08 03:28N 47°40' W 122°13'0 0.0
2017-Aug-08 02:55N 47°40' W 122°13'0 0.0
2017-Aug-08 02:29N 47°40' W 122°13'0 0.0
2017-Aug-08 01:59N 47°40' W 122°13'0 0.0
2017-Aug-08 01:29N 47°40' W 122°13'0 0.0
2017-Aug-08 01:00N 47°40' W 122°13'1 1.4
2017-Aug-08 00:30N 47°40' W 122°13'2 4.4
2017-Aug-07 23:58N 47°39' W 122°16'3 5.5
2017-Aug-07 23:30N 47°38' W 122°20'1 1.6
2017-Aug-07 23:00N 47°38' W 122°20'2 3.8
2017-Aug-07 22:30N 47°39' W 122°18'3 6.5
2017-Aug-07 22:00N 47°37' W 122°14'2 3.1
2017-Aug-07 21:31N 47°38' W 122°15'2 3.6
2017-Aug-07 21:00N 47°40' W 122°14'3 6.7
2017-Aug-07 20:30N 47°39' W 122°19'2 3.0
2017-Aug-07 19:59N 47°38' W 122°20'0 0.0
2017-Aug-07 19:29N 47°38' W 122°20'0 0.0
2017-Aug-07 19:00N 47°38' W 122°20'0 0.2
2017-Aug-07 18:30N 47°38' W 122°20'3 5.1
2017-Aug-07 18:00N 47°39' W 122°17'3 6.1
2017-Aug-07 17:28N 47°40' W 122°13'0 0.0
2017-Aug-07 16:58N 47°40' W 122°13'0 0.0
2017-Aug-07 16:28N 47°40' W 122°13'0 0.0
2017-Aug-07 15:59N 47°40' W 122°13'0 0.0
2017-Aug-07 15:23N 47°40' W 122°13'0 0.0
2017-Aug-07 14:59N 47°40' W 122°13'0 0.0
2017-Aug-07 14:30N 47°40' W 122°13'0 0.0
2017-Aug-07 14:00N 47°40' W 122°13'0 0.0
2017-Aug-07 13:30N 47°40' W 122°13'0 0.0
2017-Aug-07 12:58N 47°40' W 122°13'0 0.0
2017-Aug-07 12:28N 47°40' W 122°13'0 0.0
2017-Aug-07 11:56N 47°40' W 122°13'0 0.0
2017-Aug-07 11:29N 47°40' W 122°13'0 0.0
2017-Aug-07 10:56N 47°40' W 122°13'0 0.0
2017-Aug-07 10:29N 47°40' W 122°13'0 0.0
2017-Aug-07 10:00N 47°40' W 122°13'0 0.0
2017-Aug-07 09:30N 47°40' W 122°13'0 0.0
2017-Aug-07 09:00N 47°40' W 122°13'0 0.0
2017-Aug-07 08:28N 47°40' W 122°13'0 0.0
2017-Aug-07 07:58N 47°40' W 122°13'0 0.0
2017-Aug-07 07:29N 47°40' W 122°13'0 0.0
2017-Aug-07 06:59N 47°40' W 122°13'0 0.0
2017-Aug-07 06:29N 47°40' W 122°13'0 0.0
2017-Aug-07 06:00N 47°40' W 122°13'0 0.0
2017-Aug-07 05:30N 47°40' W 122°13'0 0.0
2017-Aug-07 05:00N 47°40' W 122°13'2 3.1
2017-Aug-07 04:30N 47°40' W 122°15'3 5.7
2017-Aug-07 04:00N 47°39' W 122°18'1 2.8
2017-Aug-07 03:30N 47°39' W 122°21'2 4.7
2017-Aug-07 03:01N 47°40' W 122°24'3 5.4
2017-Aug-07 02:31N 47°39' W 122°20'1 1.7
2017-Aug-07 02:00N 47°39' W 122°19'3 6.6
2017-Aug-07 01:31N 47°39' W 122°14'2 3.4
2017-Aug-07 00:56N 47°40' W 122°13'0 0.0
2017-Aug-07 00:29N 47°40' W 122°13'0 0.0
2017-Aug-06 23:57N 47°40' W 122°13'0 0.0
2017-Aug-06 23:30N 47°40' W 122°13'0 0.0
2017-Aug-06 23:00N 47°40' W 122°13'0 0.0
2017-Aug-06 22:28N 47°40' W 122°13'1 2.6
2017-Aug-06 22:00N 47°40' W 122°14'3 5.7
2017-Aug-06 21:30N 47°38' W 122°16'  
Track history (hours):
 
Tides and Currents Weather Stations Pressure Air Temp Water Temp Dewpoint Dewpoint Depression Visibility Wind Speed Wind Dir Waves Ship Positions

Lady Mary

Owner: BLACKMAN, JOHN H, SEATTLE, WA. More information available from US FCC via Universal Licensing System and Coast Guard Vessel Documentation Center.

Last reported at 2017-Aug-16 21:28 UTC. Time now 2017-Aug-16 21:49 UTC.
Position N 47°40' W 122°13'.

Length 26 m.

Type: Passenger vessel. MMSI: 367013060.

Date/timePositionNaut miles runAvg speedWind from/ knotsBaromVisibWave heightAir tempDewpointWater temp
2017-Aug-16 21:28N 47°40' W 122°13'0 0.0
2017-Aug-16 20:59N 47°40' W 122°13'0 0.0
2017-Aug-16 20:29N 47°40' W 122°13'0 0.0
2017-Aug-16 19:59N 47°40' W 122°13'0 0.0
2017-Aug-16 19:30N 47°40' W 122°13'0 0.0
2017-Aug-16 18:57N 47°40' W 122°13'0 0.0
2017-Aug-16 18:30N 47°40' W 122°13'0 0.0
2017-Aug-16 17:58N 47°40' W 122°13'0 0.0
2017-Aug-16 17:28N 47°40' W 122°13'0 0.0
2017-Aug-16 16:58N 47°40' W 122°13'0 0.0
2017-Aug-16 16:26N 47°40' W 122°13'0 0.0
2017-Aug-16 15:59N 47°40' W 122°13'0 0.0
2017-Aug-16 15:26N 47°40' W 122°13'0 0.0
2017-Aug-16 15:00N 47°40' W 122°13'0 0.0
2017-Aug-16 14:27N 47°40' W 122°13'0 0.0
2017-Aug-16 14:00N 47°40' W 122°13'0 0.0
2017-Aug-16 13:28N 47°40' W 122°13'0 0.0
2017-Aug-16 12:58N 47°40' W 122°13'0 0.0
2017-Aug-16 12:28N 47°40' W 122°13'0 0.0
2017-Aug-16 11:59N 47°40' W 122°13'0 0.0
2017-Aug-16 11:29N 47°40' W 122°13'0 0.0
2017-Aug-16 10:59N 47°40' W 122°13'0 0.0
2017-Aug-16 10:30N 47°40' W 122°13'0 0.0
2017-Aug-16 10:00N 47°40' W 122°13'0 0.0
2017-Aug-16 09:30N 47°40' W 122°13'0 0.0
2017-Aug-16 08:58N 47°40' W 122°13'0 0.0
2017-Aug-16 08:28N 47°40' W 122°13'0 0.0
2017-Aug-16 07:58N 47°40' W 122°13'0 0.0
2017-Aug-16 07:29N 47°40' W 122°13'0 0.0
2017-Aug-16 06:59N 47°40' W 122°13'0 0.0
2017-Aug-16 06:29N 47°40' W 122°13'0 0.0
2017-Aug-16 06:00N 47°40' W 122°13'0 0.0
2017-Aug-16 05:30N 47°40' W 122°13'0 0.0
2017-Aug-16 05:00N 47°40' W 122°13'0 0.0
2017-Aug-16 04:28N 47°40' W 122°13'0 0.0
2017-Aug-16 03:58N 47°40' W 122°13'0 0.0
2017-Aug-16 03:28N 47°40' W 122°13'0 0.0
2017-Aug-16 02:59N 47°40' W 122°13'0 0.0
2017-Aug-16 02:29N 47°40' W 122°13'0 0.0
2017-Aug-16 01:56N 47°40' W 122°13'2 4.5
2017-Aug-16 01:30N 47°39' W 122°15'3 6.6
2017-Aug-16 01:00N 47°39' W 122°20'3 6.0
2017-Aug-16 00:30N 47°40' W 122°24'0 0.3
2017-Aug-16 00:00N 47°40' W 122°24'2 4.2
2017-Aug-15 23:30N 47°38' W 122°25'4 7.2
2017-Aug-15 23:00N 47°36' W 122°20'0 0.0
2017-Aug-15 22:30N 47°36' W 122°20'0 0.0
2017-Aug-15 22:00N 47°36' W 122°20'1 2.9
2017-Aug-15 21:30N 47°35' W 122°22'2 3.2
2017-Aug-15 21:00N 47°36' W 122°24'3 6.3
2017-Aug-15 20:30N 47°35' W 122°28'3 6.0
2017-Aug-15 20:00N 47°38' W 122°29'3 6.4
2017-Aug-15 19:30N 47°38' W 122°24'3 5.6
2017-Aug-15 19:00N 47°36' W 122°20'0 0.0
2017-Aug-15 18:30N 47°36' W 122°20'0 0.0
2017-Aug-15 18:00N 47°36' W 122°20'2 3.9
2017-Aug-15 17:30N 47°37' W 122°23'4 7.2
2017-Aug-15 17:00N 47°41' W 122°25'1 2.1
2017-Aug-15 16:30N 47°40' W 122°24'0 0.5
2017-Aug-15 16:00N 47°40' W 122°24'3 5.5
2017-Aug-15 15:30N 47°38' W 122°20'0 0.0
2017-Aug-15 04:33N 47°38' W 122°20'0 0.0
2017-Aug-15 04:30N 47°38' W 122°20'0 0.0
2017-Aug-15 04:00N 47°38' W 122°20'0 0.0
2017-Aug-15 03:30N 47°38' W 122°20'1 2.8
2017-Aug-15 03:00N 47°39' W 122°20'2 4.3
2017-Aug-15 02:30N 47°38' W 122°16'1 2.5
2017-Aug-15 02:00N 47°38' W 122°15'2 4.1
2017-Aug-15 01:30N 47°39' W 122°18'2 3.2
2017-Aug-15 01:00N 47°39' W 122°20'1 1.8
2017-Aug-15 00:30N 47°38' W 122°20'0 0.0
2017-Aug-15 00:00N 47°38' W 122°20'0 0.4
2017-Aug-14 23:30N 47°38' W 122°20'0 0.1
2017-Aug-14 23:00N 47°38' W 122°20'1 2.0
2017-Aug-14 22:30N 47°39' W 122°21'0 0.0
2017-Aug-14 22:00N 47°39' W 122°21'1 2.5
2017-Aug-14 21:30N 47°39' W 122°19'4 7.6
2017-Aug-14 21:00N 47°40' W 122°13'1 1.5
2017-Aug-14 20:30N 47°40' W 122°13'0 0.0
2017-Aug-14 20:00N 47°40' W 122°13'0 0.0
2017-Aug-14 19:30N 47°40' W 122°13'0 0.0
2017-Aug-14 19:00N 47°40' W 122°13'0 0.0
2017-Aug-14 18:30N 47°40' W 122°13'0 0.0
2017-Aug-14 18:00N 47°40' W 122°13'0 0.0
2017-Aug-14 17:30N 47°40' W 122°13'0 0.0
2017-Aug-14 17:00N 47°40' W 122°13'0 0.0
2017-Aug-14 16:30N 47°40' W 122°13'0 0.0
2017-Aug-14 16:00N 47°40' W 122°13'0 0.0
2017-Aug-14 15:30N 47°40' W 122°13'0 0.0
2017-Aug-14 15:00N 47°40' W 122°13'0 0.0
2017-Aug-14 14:30N 47°40' W 122°13'0 0.0
2017-Aug-14 14:00N 47°40' W 122°13'0 0.0
2017-Aug-14 13:30N 47°40' W 122°13'0 0.0
2017-Aug-14 13:00N 47°40' W 122°13'0 0.0
2017-Aug-14 12:30N 47°40' W 122°13'0 0.0
2017-Aug-14 12:00N 47°40' W 122°13'0 0.0
2017-Aug-14 11:30N 47°40' W 122°13'0 0.0
2017-Aug-14 11:00N 47°40' W 122°13'0 0.0
2017-Aug-14 10:30N 47°40' W 122°13'0 0.0
2017-Aug-14 10:00N 47°40' W 122°13'0 0.0
2017-Aug-14 09:30N 47°40' W 122°13'0 0.0
2017-Aug-14 09:00N 47°40' W 122°13'0 0.0
2017-Aug-14 08:30N 47°40' W 122°13'0 0.0
2017-Aug-14 08:00N 47°40' W 122°13'0 0.0
2017-Aug-14 07:30N 47°40' W 122°13'0 0.0
2017-Aug-14 07:00N 47°40' W 122°13'0 0.0
2017-Aug-14 06:30N 47°40' W 122°13'0 0.0
2017-Aug-14 06:00N 47°40' W 122°13'0 0.0
2017-Aug-14 05:30N 47°40' W 122°13'0 0.0
2017-Aug-14 05:00N 47°40' W 122°13'0 0.0
2017-Aug-14 04:30N 47°40' W 122°13'0 0.0
2017-Aug-14 04:00N 47°40' W 122°13'0 0.0
2017-Aug-14 03:30N 47°40' W 122°13'0 0.0
2017-Aug-14 03:00N 47°40' W 122°13'0 0.0
2017-Aug-14 02:30N 47°40' W 122°13'0 0.0
2017-Aug-14 02:00N 47°40' W 122°13'0 0.0
2017-Aug-14 01:30N 47°40' W 122°13'0 0.0
2017-Aug-14 01:00N 47°40' W 122°13'0 0.0
2017-Aug-14 00:30N 47°40' W 122°13'0 0.0
2017-Aug-14 00:00N 47°40' W 122°13'3 6.6
2017-Aug-13 23:30N 47°37' W 122°15'0 0.2
2017-Aug-13 23:00N 47°38' W 122°15'3 6.5
2017-Aug-13 22:30N 47°40' W 122°13'0 0.0
2017-Aug-13 22:00N 47°40' W 122°13'3 6.9
2017-Aug-13 21:30N 47°37' W 122°15'1 1.1
2017-Aug-13 21:01N 47°38' W 122°15'3 5.9
2017-Aug-13 20:30N 47°40' W 122°13'0 0.0
2017-Aug-13 20:00N 47°40' W 122°13'3 6.6
2017-Aug-13 19:30N 47°38' W 122°15'0 0.3
2017-Aug-13 19:00N 47°38' W 122°15'3 6.3
2017-Aug-13 18:30N 47°40' W 122°13'0 0.0
2017-Aug-13 18:00N 47°40' W 122°13'0 0.0
2017-Aug-13 17:30N 47°40' W 122°13'0 0.0
2017-Aug-13 17:00N 47°40' W 122°13'0 0.0
2017-Aug-13 16:30N 47°40' W 122°13'0 0.0
2017-Aug-13 16:00N 47°40' W 122°13'0 0.0
2017-Aug-13 15:30N 47°40' W 122°13'0 0.0
2017-Aug-13 15:00N 47°40' W 122°13'0 0.0
2017-Aug-13 14:30N 47°40' W 122°13'0 0.0
2017-Aug-13 14:00N 47°40' W 122°13'0 0.0
2017-Aug-13 13:30N 47°40' W 122°13'0 0.0
2017-Aug-13 13:00N 47°40' W 122°13'0 0.0
2017-Aug-13 12:30N 47°40' W 122°13'0 0.0
2017-Aug-13 12:00N 47°40' W 122°13'0 0.0
2017-Aug-13 11:30N 47°40' W 122°13'0 0.0
2017-Aug-13 11:00N 47°40' W 122°13'0 0.0
2017-Aug-13 10:30N 47°40' W 122°13'0 0.0
2017-Aug-13 10:00N 47°40' W 122°13'0 0.0
2017-Aug-13 09:30N 47°40' W 122°13'0 0.0
2017-Aug-13 09:00N 47°40' W 122°13'0 0.0
2017-Aug-13 08:30N 47°40' W 122°13'0 0.0
2017-Aug-13 08:00N 47°40' W 122°13'0 0.0
2017-Aug-13 07:30N 47°40' W 122°13'1 2.1
2017-Aug-13 07:00N 47°39' W 122°13'0 0.0
2017-Aug-13 06:30N 47°39' W 122°13'0 0.0
2017-Aug-13 06:00N 47°39' W 122°13'2 3.4
2017-Aug-13 05:30N 47°38' W 122°15'2 3.5
2017-Aug-13 05:00N 47°37' W 122°14'3 5.4
2017-Aug-13 04:30N 47°39' W 122°17'2 4.5
2017-Aug-13 04:00N 47°38' W 122°20'2 3.0
2017-Aug-13 03:30N 47°39' W 122°18'3 6.0
2017-Aug-13 03:00N 47°39' W 122°14'0 0.2
2017-Aug-13 02:30N 47°39' W 122°13'1 1.6
2017-Aug-13 02:00N 47°39' W 122°13'0 0.0
2017-Aug-13 01:30N 47°39' W 122°13'0 0.0
2017-Aug-13 01:00N 47°39' W 122°13'0 0.0
2017-Aug-13 00:30N 47°39' W 122°13'0 0.0
2017-Aug-13 00:00N 47°39' W 122°13'0 0.0
2017-Aug-12 23:31N 47°39' W 122°13'1 2.1
2017-Aug-12 23:00N 47°40' W 122°13'0 0.0
2017-Aug-12 22:30N 47°40' W 122°13'0 0.6
2017-Aug-12 22:00N 47°40' W 122°13'4 7.2
2017-Aug-12 21:30N 47°37' W 122°14'2 4.1
2017-Aug-12 21:00N 47°39' W 122°14'2 4.1
2017-Aug-12 20:30N 47°40' W 122°13'0 0.0
2017-Aug-12 20:00N 47°40' W 122°13'4 7.5
2017-Aug-12 19:30N 47°37' W 122°14'2 3.2
2017-Aug-12 19:00N 47°38' W 122°15'2 4.8
2017-Aug-12 18:30N 47°40' W 122°13'0 0.0
2017-Aug-12 18:00N 47°40' W 122°13'0 0.0
2017-Aug-12 17:30N 47°40' W 122°13'0 0.0
2017-Aug-12 17:00N 47°40' W 122°13'0 0.0
2017-Aug-12 16:30N 47°40' W 122°13'0 0.0
2017-Aug-12 16:00N 47°40' W 122°13'0 0.0
2017-Aug-12 15:31N 47°40' W 122°13'0 0.0
2017-Aug-12 15:00N 47°40' W 122°13'0 0.0
2017-Aug-12 14:30N 47°40' W 122°13'0 0.0
2017-Aug-12 14:00N 47°40' W 122°13'0 0.0
2017-Aug-12 13:30N 47°40' W 122°13'0 0.0
2017-Aug-12 13:00N 47°40' W 122°13'0 0.0
2017-Aug-12 12:30N 47°40' W 122°13'0 0.0
2017-Aug-12 12:00N 47°40' W 122°13'0 0.0
2017-Aug-12 11:30N 47°40' W 122°13'0 0.0
2017-Aug-12 11:00N 47°40' W 122°13'0 0.0
2017-Aug-12 10:30N 47°40' W 122°13'0 0.0
2017-Aug-12 10:00N 47°40' W 122°13'0 0.0
2017-Aug-12 09:30N 47°40' W 122°13'0 0.0
2017-Aug-12 09:00N 47°40' W 122°13'0 0.0
2017-Aug-12 08:30N 47°40' W 122°13'0 0.0
2017-Aug-12 08:00N 47°40' W 122°13'0 0.0
2017-Aug-12 07:30N 47°40' W 122°13'0 0.0
2017-Aug-12 07:00N 47°40' W 122°13'1 2.2
2017-Aug-12 06:30N 47°40' W 122°14'4 7.7
2017-Aug-12 06:00N 47°39' W 122°20'1 2.9
2017-Aug-12 05:30N 47°38' W 122°20'4 6.9
2017-Aug-12 04:59N 47°37' W 122°15'2 4.5
2017-Aug-12 04:30N 47°39' W 122°17'2 3.5
2017-Aug-12 04:00N 47°37' W 122°16'2 3.0
2017-Aug-12 03:30N 47°38' W 122°15'4 7.2
2017-Aug-12 02:59N 47°38' W 122°20'0 0.5
2017-Aug-12 02:30N 47°38' W 122°20'1 1.5
2017-Aug-12 02:00N 47°38' W 122°20'0 0.0
2017-Aug-12 01:30N 47°38' W 122°20'0 0.1
2017-Aug-12 01:00N 47°38' W 122°20'1 2.4
2017-Aug-12 00:30N 47°39' W 122°20'3 6.7
2017-Aug-12 00:00N 47°39' W 122°15'2 3.6
2017-Aug-11 23:31N 47°40' W 122°13'0 0.0
2017-Aug-11 23:00N 47°40' W 122°13'0 0.0
2017-Aug-11 22:30N 47°40' W 122°13'0 0.0
2017-Aug-11 22:00N 47°40' W 122°13'0 0.0
2017-Aug-11 21:30N 47°40' W 122°13'0 0.0
2017-Aug-11 21:00N 47°40' W 122°13'0 0.0
2017-Aug-11 20:30N 47°40' W 122°13'0 0.0
2017-Aug-11 20:00N 47°40' W 122°13'0 0.0
2017-Aug-11 19:30N 47°40' W 122°13'0 0.0
2017-Aug-11 19:00N 47°40' W 122°13'0 0.0
2017-Aug-11 18:30N 47°40' W 122°13'0 0.0
2017-Aug-11 18:00N 47°40' W 122°13'0 0.0
2017-Aug-11 17:30N 47°40' W 122°13'0 0.0
2017-Aug-11 17:00N 47°40' W 122°13'0 0.0
2017-Aug-11 16:30N 47°40' W 122°13'0 0.0
2017-Aug-11 16:00N 47°40' W 122°13'0 0.0
2017-Aug-11 15:30N 47°40' W 122°13'0 0.0
2017-Aug-11 15:00N 47°40' W 122°13'0 0.0
2017-Aug-11 14:00N 47°40' W 122°13'0 0.0
2017-Aug-11 13:30N 47°40' W 122°13'0 0.0
2017-Aug-11 13:00N 47°40' W 122°13'0 0.0
2017-Aug-11 12:30N 47°40' W 122°13'0 0.0
2017-Aug-11 12:00N 47°40' W 122°13'0 0.0
2017-Aug-11 11:30N 47°40' W 122°13'0 0.0
2017-Aug-11 11:00N 47°40' W 122°13'0 0.0
2017-Aug-11 10:30N 47°40' W 122°13'0 0.0
2017-Aug-11 10:00N 47°40' W 122°13'0 0.0
2017-Aug-11 09:30N 47°40' W 122°13'0 0.0
2017-Aug-11 09:00N 47°40' W 122°13'0 0.0
2017-Aug-11 08:30N 47°40' W 122°13'0 0.0
2017-Aug-11 08:00N 47°40' W 122°13'0 0.0
2017-Aug-11 07:30N 47°40' W 122°13'4 7.3
2017-Aug-11 07:00N 47°39' W 122°17'2 4.5
2017-Aug-11 06:30N 47°39' W 122°21'1 1.9
2017-Aug-11 06:00N 47°38' W 122°20'0 0.2
2017-Aug-11 05:30N 47°38' W 122°20'0 0.0
2017-Aug-11 05:00N 47°38' W 122°20'2 3.8
2017-Aug-11 04:27N 47°39' W 122°18'3 6.7
2017-Aug-11 04:00N 47°37' W 122°14'1 2.6
2017-Aug-11 03:30N 47°38' W 122°15'3 6.4
2017-Aug-11 03:01N 47°39' W 122°19'1 2.5
2017-Aug-11 02:31N 47°38' W 122°20'0 0.7
2017-Aug-11 02:00N 47°38' W 122°20'0 0.0
2017-Aug-11 01:30N 47°38' W 122°20'0 0.0
2017-Aug-11 01:00N 47°38' W 122°20'0 0.1
2017-Aug-11 00:30N 47°38' W 122°20'2 4.8
2017-Aug-11 00:00N 47°39' W 122°17'3 7.0
2017-Aug-10 23:31N 47°40' W 122°13'0 0.0
2017-Aug-10 23:00N 47°40' W 122°13'0 0.0
2017-Aug-10 22:30N 47°40' W 122°13'1 2.8
2017-Aug-10 22:00N 47°39' W 122°13'2 4.1
2017-Aug-10 21:30N 47°38' W 122°16'3 5.7
2017-Aug-10 21:00N 47°39' W 122°19'0 0.8
2017-Aug-10 20:30N 47°39' W 122°20'3 5.9
2017-Aug-10 20:00N 47°39' W 122°15'2 4.5
2017-Aug-10 19:30N 47°40' W 122°13'0 0.0
2017-Aug-10 19:00N 47°40' W 122°13'0 0.0
2017-Aug-10 18:30N 47°40' W 122°13'0 0.0
2017-Aug-10 18:00N 47°40' W 122°13'0 0.0
2017-Aug-10 17:30N 47°40' W 122°13'0 0.0
2017-Aug-10 17:00N 47°40' W 122°13'0 0.0
2017-Aug-10 16:30N 47°40' W 122°13'0 0.0
2017-Aug-10 16:00N 47°40' W 122°13'0 0.0
2017-Aug-10 15:30N 47°40' W 122°13'0 0.0
2017-Aug-10 15:00N 47°40' W 122°13'0 0.0
2017-Aug-10 14:30N 47°40' W 122°13'0 0.0
2017-Aug-10 14:00N 47°40' W 122°13'0 0.0
2017-Aug-10 13:30N 47°40' W 122°13'0 0.0
2017-Aug-10 13:00N 47°40' W 122°13'0 0.0
2017-Aug-10 12:30N 47°40' W 122°13'0 0.0
2017-Aug-10 12:00N 47°40' W 122°13'0 0.0
2017-Aug-10 11:30N 47°40' W 122°13'0 0.0
2017-Aug-10 11:00N 47°40' W 122°13'0 0.0
2017-Aug-10 10:30N 47°40' W 122°13'0 0.0
2017-Aug-10 10:00N 47°40' W 122°13'0 0.0
2017-Aug-10 09:30N 47°40' W 122°13'0 0.0
2017-Aug-10 09:00N 47°40' W 122°13'0 0.0
2017-Aug-10 08:30N 47°40' W 122°13'0 0.0
2017-Aug-10 08:00N 47°40' W 122°13'0 0.0
2017-Aug-10 07:30N 47°40' W 122°13'0 0.0
2017-Aug-10 07:00N 47°40' W 122°13'0 0.0
2017-Aug-10 06:30N 47°40' W 122°13'2 3.4
2017-Aug-10 06:00N 47°40' W 122°15'3 6.6
2017-Aug-10 05:30N 47°39' W 122°20'1 1.6
2017-Aug-10 05:00N 47°39' W 122°21'2 3.0
2017-Aug-10 04:30N 47°39' W 122°18'4 8.0
2017-Aug-10 04:00N 47°40' W 122°13'1 2.0
2017-Aug-10 03:30N 47°39' W 122°14'3 6.2
2017-Aug-10 03:00N 47°36' W 122°13'3 5.7
2017-Aug-10 02:30N 47°39' W 122°14'1 2.8
2017-Aug-10 02:00N 47°40' W 122°13'0 0.0
2017-Aug-10 01:30N 47°40' W 122°13'0 0.0
2017-Aug-10 01:00N 47°40' W 122°13'0 0.5
2017-Aug-10 00:30N 47°40' W 122°13'4 7.9
2017-Aug-10 00:00N 47°39' W 122°18'2 3.4
2017-Aug-09 23:30N 47°38' W 122°20'0 0.1
2017-Aug-09 23:00N 47°38' W 122°20'2 3.0
2017-Aug-09 22:30N 47°39' W 122°21'3 5.4
2017-Aug-09 22:00N 47°39' W 122°17'3 5.5
2017-Aug-09 21:30N 47°37' W 122°14'1 2.3
2017-Aug-09 21:00N 47°38' W 122°16'3 5.7
2017-Aug-09 20:30N 47°39' W 122°19'2 2.2
2017-Aug-09 19:46N 47°38' W 122°20'0 0.0
2017-Aug-09 19:30N 47°38' W 122°20'0 0.0
2017-Aug-09 18:38N 47°38' W 122°20'0 1.0
2017-Aug-09 18:30N 47°38' W 122°20'3 5.4
2017-Aug-09 17:59N 47°39' W 122°16'3 5.1
2017-Aug-09 17:23N 47°40' W 122°13'0 0.0
2017-Aug-09 16:59N 47°40' W 122°13'0 0.0
2017-Aug-09 16:30N 47°40' W 122°13'0 0.0
2017-Aug-09 15:54N 47°40' W 122°13'0 0.0
2017-Aug-09 15:30N 47°40' W 122°13'0 0.0
2017-Aug-09 14:58N 47°40' W 122°13'0 0.0
2017-Aug-09 14:25N 47°40' W 122°13'0 0.0
2017-Aug-09 13:49N 47°40' W 122°13'0 0.0
2017-Aug-09 13:29N 47°40' W 122°13'0 0.0
2017-Aug-09 12:56N 47°40' W 122°13'0 0.0
2017-Aug-09 12:29N 47°40' W 122°13'0 0.0
2017-Aug-09 12:00N 47°40' W 122°13'0 0.0
2017-Aug-09 11:30N 47°40' W 122°13'0 0.0
2017-Aug-09 11:00N 47°40' W 122°13'0 0.0
2017-Aug-09 10:28N 47°40' W 122°13'0 0.0
2017-Aug-09 09:58N 47°40' W 122°13'0 0.0
2017-Aug-09 09:28N 47°40' W 122°13'0 0.0
2017-Aug-09 08:59N 47°40' W 122°13'0 0.0
2017-Aug-09 08:23N 47°40' W 122°13'0 0.0
2017-Aug-09 07:59N 47°40' W 122°13'0 0.0
2017-Aug-09 07:30N 47°40' W 122°13'0 0.0
2017-Aug-09 07:00N 47°40' W 122°13'0 0.0
2017-Aug-09 06:30N 47°40' W 122°13'0 0.0
2017-Aug-09 05:55N 47°40' W 122°13'0 0.0
2017-Aug-09 05:28N 47°40' W 122°13'0 0.0
2017-Aug-09 04:55N 47°40' W 122°13'0 0.0
2017-Aug-09 04:29N 47°40' W 122°13'0 0.0
2017-Aug-09 03:56N 47°40' W 122°13'0 0.0
2017-Aug-09 03:29N 47°40' W 122°13'0 0.0
2017-Aug-09 02:57N 47°40' W 122°13'0 0.0
2017-Aug-09 02:30N 47°40' W 122°13'0 0.0
2017-Aug-09 01:57N 47°40' W 122°13'0 0.0
2017-Aug-09 01:28N 47°40' W 122°13'0 0.0
2017-Aug-09 00:58N 47°40' W 122°13'0 0.0
2017-Aug-09 00:28N 47°40' W 122°13'0 0.0
2017-Aug-08 23:56N 47°40' W 122°13'0 0.0
2017-Aug-08 23:29N 47°40' W 122°13'0 0.0
2017-Aug-08 22:59N 47°40' W 122°13'0 0.0
2017-Aug-08 22:30N 47°40' W 122°13'0 0.0
2017-Aug-08 22:00N 47°40' W 122°13'0 0.0
2017-Aug-08 21:30N 47°40' W 122°13'0 0.0
2017-Aug-08 20:58N 47°40' W 122°13'0 0.0
2017-Aug-08 20:28N 47°40' W 122°13'0 0.0
2017-Aug-08 19:58N 47°40' W 122°13'0 0.0
2017-Aug-08 19:29N 47°40' W 122°13'0 0.0
2017-Aug-08 18:56N 47°40' W 122°13'0 0.0
2017-Aug-08 18:30N 47°40' W 122°13'1 1.5
2017-Aug-08 18:00N 47°40' W 122°13'1 1.3
2017-Aug-08 17:28N 47°40' W 122°13'0 0.0
2017-Aug-08 16:58N 47°40' W 122°13'0 0.0
2017-Aug-08 16:25N 47°40' W 122°13'0 0.0
2017-Aug-08 15:59N 47°40' W 122°13'0 0.0
2017-Aug-08 15:29N 47°40' W 122°13'0 0.0
2017-Aug-08 14:59N 47°40' W 122°13'0 0.0
2017-Aug-08 14:30N 47°40' W 122°13'0 0.0
2017-Aug-08 13:57N 47°40' W 122°13'0 0.0
2017-Aug-08 13:30N 47°40' W 122°13'0 0.0
2017-Aug-08 12:58N 47°40' W 122°13'0 0.0
2017-Aug-08 12:25N 47°40' W 122°13'0 0.0
2017-Aug-08 11:58N 47°40' W 122°13'0 0.0
2017-Aug-08 11:29N 47°40' W 122°13'0 0.0
2017-Aug-08 10:59N 47°40' W 122°13'0 0.0
2017-Aug-08 10:29N 47°40' W 122°13'0 0.0
2017-Aug-08 10:00N 47°40' W 122°13'0 0.0
2017-Aug-08 09:30N 47°40' W 122°13'0 0.0
2017-Aug-08 09:00N 47°40' W 122°13'0 0.0
2017-Aug-08 08:28N 47°40' W 122°13'0 0.0
2017-Aug-08 07:55N 47°40' W 122°13'0 0.0
2017-Aug-08 07:28N 47°40' W 122°13'0 0.0
2017-Aug-08 06:59N 47°40' W 122°13'0 0.0
2017-Aug-08 06:29N 47°40' W 122°13'0 0.0
2017-Aug-08 05:59N 47°40' W 122°13'0 0.0
2017-Aug-08 05:30N 47°40' W 122°13'0 0.0
2017-Aug-08 05:00N 47°40' W 122°13'0 0.0
2017-Aug-08 04:27N 47°40' W 122°13'0 0.0
2017-Aug-08 03:58N 47°40' W 122°13'0 0.0
2017-Aug-08 03:28N 47°40' W 122°13'0 0.0
2017-Aug-08 02:55N 47°40' W 122°13'0 0.0
2017-Aug-08 02:29N 47°40' W 122°13'0 0.0
2017-Aug-08 01:59N 47°40' W 122°13'0 0.0
2017-Aug-08 01:29N 47°40' W 122°13'0 0.0
2017-Aug-08 01:00N 47°40' W 122°13'1 1.4
2017-Aug-08 00:30N 47°40' W 122°13'2 4.4
2017-Aug-07 23:58N 47°39' W 122°16'3 5.5
2017-Aug-07 23:30N 47°38' W 122°20'1 1.6
2017-Aug-07 23:00N 47°38' W 122°20'2 3.8
2017-Aug-07 22:30N 47°39' W 122°18'3 6.5
2017-Aug-07 22:00N 47°37' W 122°14'2 3.1
2017-Aug-07 21:31N 47°38' W 122°15'2 3.6
2017-Aug-07 21:00N 47°40' W 122°14'3 6.7
2017-Aug-07 20:30N 47°39' W 122°19'2 3.0
2017-Aug-07 19:59N 47°38' W 122°20'0 0.0
2017-Aug-07 19:29N 47°38' W 122°20'0 0.0
2017-Aug-07 19:00N 47°38' W 122°20'0 0.2
2017-Aug-07 18:30N 47°38' W 122°20'3 5.1
2017-Aug-07 18:00N 47°39' W 122°17'3 6.1
2017-Aug-07 17:28N 47°40' W 122°13'0 0.0
2017-Aug-07 16:58N 47°40' W 122°13'0 0.0
2017-Aug-07 16:28N 47°40' W 122°13'0 0.0
2017-Aug-07 15:59N 47°40' W 122°13'0 0.0
2017-Aug-07 15:23N 47°40' W 122°13'0 0.0
2017-Aug-07 14:59N 47°40' W 122°13'0 0.0
2017-Aug-07 14:30N 47°40' W 122°13'0 0.0
2017-Aug-07 14:00N 47°40' W 122°13'0 0.0
2017-Aug-07 13:30N 47°40' W 122°13'0 0.0
2017-Aug-07 12:58N 47°40' W 122°13'0 0.0
2017-Aug-07 12:28N 47°40' W 122°13'0 0.0
2017-Aug-07 11:56N 47°40' W 122°13'0 0.0
2017-Aug-07 11:29N 47°40' W 122°13'0 0.0
2017-Aug-07 10:56N 47°40' W 122°13'0 0.0
2017-Aug-07 10:29N 47°40' W 122°13'0 0.0
2017-Aug-07 10:00N 47°40' W 122°13'0 0.0
2017-Aug-07 09:30N 47°40' W 122°13'0 0.0
2017-Aug-07 09:00N 47°40' W 122°13'0 0.0
2017-Aug-07 08:28N 47°40' W 122°13'0 0.0
2017-Aug-07 07:58N 47°40' W 122°13'0 0.0
2017-Aug-07 07:29N 47°40' W 122°13'0 0.0
2017-Aug-07 06:59N 47°40' W 122°13'0 0.0
2017-Aug-07 06:29N 47°40' W 122°13'0 0.0
2017-Aug-07 06:00N 47°40' W 122°13'0 0.0
2017-Aug-07 05:30N 47°40' W 122°13'0 0.0
2017-Aug-07 05:00N 47°40' W 122°13'2 3.1
2017-Aug-07 04:30N 47°40' W 122°15'3 5.7
2017-Aug-07 04:00N 47°39' W 122°18'1 2.8
2017-Aug-07 03:30N 47°39' W 122°21'2 4.7
2017-Aug-07 03:01N 47°40' W 122°24'3 5.4
2017-Aug-07 02:31N 47°39' W 122°20'1 1.7
2017-Aug-07 02:00N 47°39' W 122°19'3 6.6
2017-Aug-07 01:31N 47°39' W 122°14'2 3.4
2017-Aug-07 00:56N 47°40' W 122°13'0 0.0
2017-Aug-07 00:29N 47°40' W 122°13'0 0.0
2017-Aug-06 23:57N 47°40' W 122°13'0 0.0
2017-Aug-06 23:30N 47°40' W 122°13'0 0.0
2017-Aug-06 23:00N 47°40' W 122°13'0 0.0
2017-Aug-06 22:28N 47°40' W 122°13'1 2.6
2017-Aug-06 22:00N 47°40' W 122°14'3 5.7
2017-Aug-06 21:30N 47°38' W 122°16'  

Dump ship's entire track history